Nearby METAR Reports

 

KTOP - Billard Municipal Airport, Topeka, Kansas, USA
Updated: 06/22/2018 6:53pm
Overcast
Overcast
 Wind from NNW
Wind: NNW 6 mph , 9 km/h
Temperature: 72°F , 22°C
Dew Point: 63°F , 17°C
Humidity: 73%
Barometer: 1009.1 hPa
Clouds: Overcast
Visibility: 10 miles , 16 km
Cloud details: Overcast 3000 ft
2018/06/22 23:53 KTOP 222353Z 34005KT 10SM OVC030 22/17 A2980 RMK AO2 SLP084 T02170172 10222 20206 56013
KFOE - Forbes Field Airport, Topeka, Kansas, USA
Updated: 06/22/2018 6:53pm
Overcast
Overcast
 Wind from NNE
Wind: NNE 5 mph , 7 km/h
Temperature: 72°F , 22°C
Dew Point: 63°F , 17°C
Humidity: 73%
Barometer: 1009.1 hPa
Clouds: Overcast
Visibility: 10 miles , 16 km
Cloud details: Overcast 2700 ft
2018/06/22 23:53 KFOE 222353Z 02004KT 10SM OVC027 22/17 A2980 RMK AO2 SLP081 T02220172 10228 20206 58014